sensor_id;sensor_type;location;lat;lon;timestamp;temperature;humidity
22781;DHT22;11557;50.884;4.322;2023-04-24T00:01:16;10.80;99.90
22781;DHT22;11557;50.884;4.322;2023-04-24T00:03:42;10.90;99.90
22781;DHT22;11557;50.884;4.322;2023-04-24T00:06:08;10.70;99.90
22781;DHT22;11557;50.884;4.322;2023-04-24T00:08:35;10.70;99.90
22781;DHT22;11557;50.884;4.322;2023-04-24T00:11:01;10.60;99.90
22781;DHT22;11557;50.884;4.322;2023-04-24T00:13:26;10.60;99.90
22781;DHT22;11557;50.884;4.322;2023-04-24T00:15:54;10.70;99.90
22781;DHT22;11557;50.884;4.322;2023-04-24T00:18:20;10.70;99.90
22781;DHT22;11557;50.884;4.322;2023-04-24T00:20:46;10.80;99.90
22781;DHT22;11557;50.884;4.322;2023-04-24T00:23:12;10.70;99.90
22781;DHT22;11557;50.884;4.322;2023-04-24T00:25:37;10.60;99.90
22781;DHT22;11557;50.884;4.322;2023-04-24T00:28:03;10.60;99.90
22781;DHT22;11557;50.884;4.322;2023-04-24T00:30:29;10.70;99.90
22781;DHT22;11557;50.884;4.322;2023-04-24T00:32:55;10.70;99.90
22781;DHT22;11557;50.884;4.322;2023-04-24T00:35:20;10.70;99.90
22781;DHT22;11557;50.884;4.322;2023-04-24T00:37:46;10.70;99.90
22781;DHT22;11557;50.884;4.322;2023-04-24T00:40:12;10.90;99.90
22781;DHT22;11557;50.884;4.322;2023-04-24T00:42:38;10.90;99.90
22781;DHT22;11557;50.884;4.322;2023-04-24T00:45:05;11.00;99.90
22781;DHT22;11557;50.884;4.322;2023-04-24T00:47:33;10.90;99.90
22781;DHT22;11557;50.884;4.322;2023-04-24T00:50:00;10.80;99.90
22781;DHT22;11557;50.884;4.322;2023-04-24T00:52:26;10.70;99.90
22781;DHT22;11557;50.884;4.322;2023-04-24T00:54:53;10.80;99.90
22781;DHT22;11557;50.884;4.322;2023-04-24T00:57:19;10.80;99.90
22781;DHT22;11557;50.884;4.322;2023-04-24T00:59:45;10.70;99.90
22781;DHT22;11557;50.884;4.322;2023-04-24T01:02:11;10.70;99.90
22781;DHT22;11557;50.884;4.322;2023-04-24T01:04:38;10.80;99.90
22781;DHT22;11557;50.884;4.322;2023-04-24T01:07:04;10.80;99.90
22781;DHT22;11557;50.884;4.322;2023-04-24T01:09:36;10.70;99.90
22781;DHT22;11557;50.884;4.322;2023-04-24T01:12:03;10.70;99.90
22781;DHT22;11557;50.884;4.322;2023-04-24T01:14:29;10.70;99.90
22781;DHT22;11557;50.884;4.322;2023-04-24T01:16:55;10.60;99.90
22781;DHT22;11557;50.884;4.322;2023-04-24T01:19:22;10.60;99.90
22781;DHT22;11557;50.884;4.322;2023-04-24T01:21:51;10.60;99.90
22781;DHT22;11557;50.884;4.322;2023-04-24T01:24:18;10.70;99.90
22781;DHT22;11557;50.884;4.322;2023-04-24T01:26:45;10.70;99.90
22781;DHT22;11557;50.884;4.322;2023-04-24T01:29:11;10.50;99.90
22781;DHT22;11557;50.884;4.322;2023-04-24T01:31:36;10.50;99.90
22781;DHT22;11557;50.884;4.322;2023-04-24T01:34:03;10.60;99.90
22781;DHT22;11557;50.884;4.322;2023-04-24T01:36:29;10.60;99.90
22781;DHT22;11557;50.884;4.322;2023-04-24T01:38:56;10.70;99.90
22781;DHT22;11557;50.884;4.322;2023-04-24T01:41:22;10.70;99.90
22781;DHT22;11557;50.884;4.322;2023-04-24T01:43:49;10.70;99.90
22781;DHT22;11557;50.884;4.322;2023-04-24T01:46:15;10.60;99.90
22781;DHT22;11557;50.884;4.322;2023-04-24T01:48:41;9.80;99.90
22781;DHT22;11557;50.884;4.322;2023-04-24T01:51:07;10.40;99.90
22781;DHT22;11557;50.884;4.322;2023-04-24T01:53:32;10.60;99.90
22781;DHT22;11557;50.884;4.322;2023-04-24T01:55:58;10.50;99.90
22781;DHT22;11557;50.884;4.322;2023-04-24T01:58:24;10.50;99.90
22781;DHT22;11557;50.884;4.322;2023-04-24T02:00:50;10.60;99.90
22781;DHT22;11557;50.884;4.322;2023-04-24T02:03:15;10.40;99.90
22781;DHT22;11557;50.884;4.322;2023-04-24T02:05:44;10.40;99.90
22781;DHT22;11557;50.884;4.322;2023-04-24T02:08:10;10.40;99.90
22781;DHT22;11557;50.884;4.322;2023-04-24T02:10:36;10.30;99.90
22781;DHT22;11557;50.884;4.322;2023-04-24T02:13:01;10.40;99.90
22781;DHT22;11557;50.884;4.322;2023-04-24T02:15:27;10.40;99.90
22781;DHT22;11557;50.884;4.322;2023-04-24T02:17:53;10.40;99.90
22781;DHT22;11557;50.884;4.322;2023-04-24T02:20:19;10.50;99.90
22781;DHT22;11557;50.884;4.322;2023-04-24T02:22:44;10.70;99.90
22781;DHT22;11557;50.884;4.322;2023-04-24T02:25:10;10.60;99.90
22781;DHT22;11557;50.884;4.322;2023-04-24T02:27:36;10.60;99.90
22781;DHT22;11557;50.884;4.322;2023-04-24T02:30:01;10.60;99.90
22781;DHT22;11557;50.884;4.322;2023-04-24T02:32:28;10.50;99.90
22781;DHT22;11557;50.884;4.322;2023-04-24T02:34:54;10.50;99.90
22781;DHT22;11557;50.884;4.322;2023-04-24T02:37:19;10.40;99.90
22781;DHT22;11557;50.884;4.322;2023-04-24T02:39:45;10.30;99.90
22781;DHT22;11557;50.884;4.322;2023-04-24T02:42:11;10.40;99.90
22781;DHT22;11557;50.884;4.322;2023-04-24T02:44:36;10.10;99.90
22781;DHT22;11557;50.884;4.322;2023-04-24T02:47:02;9.90;99.90
22781;DHT22;11557;50.884;4.322;2023-04-24T02:49:28;10.00;99.90
22781;DHT22;11557;50.884;4.322;2023-04-24T02:51:54;10.00;99.90
22781;DHT22;11557;50.884;4.322;2023-04-24T02:54:20;10.10;99.90
22781;DHT22;11557;50.884;4.322;2023-04-24T02:56:45;10.00;99.90
22781;DHT22;11557;50.884;4.322;2023-04-24T02:59:11;10.00;99.90
22781;DHT22;11557;50.884;4.322;2023-04-24T03:01:36;10.10;99.90
22781;DHT22;11557;50.884;4.322;2023-04-24T03:04:02;10.20;99.90
22781;DHT22;11557;50.884;4.322;2023-04-24T03:06:28;10.30;99.90
22781;DHT22;11557;50.884;4.322;2023-04-24T03:08:54;10.30;99.90
22781;DHT22;11557;50.884;4.322;2023-04-24T03:11:20;10.30;99.90
22781;DHT22;11557;50.884;4.322;2023-04-24T03:13:46;10.30;99.90
22781;DHT22;11557;50.884;4.322;2023-04-24T03:16:11;10.10;99.90
22781;DHT22;11557;50.884;4.322;2023-04-24T03:18:37;10.10;99.90
22781;DHT22;11557;50.884;4.322;2023-04-24T03:21:03;10.10;99.90
22781;DHT22;11557;50.884;4.322;2023-04-24T03:23:29;10.20;99.90
22781;DHT22;11557;50.884;4.322;2023-04-24T03:25:54;10.10;99.90
22781;DHT22;11557;50.884;4.322;2023-04-24T03:28:20;10.20;99.90
22781;DHT22;11557;50.884;4.322;2023-04-24T03:30:46;10.10;99.90
22781;DHT22;11557;50.884;4.322;2023-04-24T03:33:11;9.80;99.90
22781;DHT22;11557;50.884;4.322;2023-04-24T03:35:37;9.60;99.90
22781;DHT22;11557;50.884;4.322;2023-04-24T03:38:03;9.60;99.90
22781;DHT22;11557;50.884;4.322;2023-04-24T03:40:30;9.60;99.90
22781;DHT22;11557;50.884;4.322;2023-04-24T03:42:55;9.50;99.90
22781;DHT22;11557;50.884;4.322;2023-04-24T03:45:21;9.50;99.90
22781;DHT22;11557;50.884;4.322;2023-04-24T03:47:47;9.60;99.90
22781;DHT22;11557;50.884;4.322;2023-04-24T03:50:13;9.60;99.90
22781;DHT22;11557;50.884;4.322;2023-04-24T03:52:38;9.60;99.90
22781;DHT22;11557;50.884;4.322;2023-04-24T03:55:04;9.70;99.90
22781;DHT22;11557;50.884;4.322;2023-04-24T03:57:31;9.60;99.90
22781;DHT22;11557;50.884;4.322;2023-04-24T03:59:57;9.70;99.90
22781;DHT22;11557;50.884;4.322;2023-04-24T04:02:23;9.70;99.90
22781;DHT22;11557;50.884;4.322;2023-04-24T04:04:48;9.80;99.90
22781;DHT22;11557;50.884;4.322;2023-04-24T04:07:14;9.80;99.90
22781;DHT22;11557;50.884;4.322;2023-04-24T04:09:40;9.70;99.90
22781;DHT22;11557;50.884;4.322;2023-04-24T04:12:05;9.70;99.90
22781;DHT22;11557;50.884;4.322;2023-04-24T04:14:31;9.70;99.90
22781;DHT22;11557;50.884;4.322;2023-04-24T04:16:56;9.50;99.90
22781;DHT22;11557;50.884;4.322;2023-04-24T04:19:22;9.60;99.90
22781;DHT22;11557;50.884;4.322;2023-04-24T04:21:48;9.50;99.90
22781;DHT22;11557;50.884;4.322;2023-04-24T04:24:19;9.60;99.90
22781;DHT22;11557;50.884;4.322;2023-04-24T04:26:46;9.70;99.90
22781;DHT22;11557;50.884;4.322;2023-04-24T04:29:13;9.60;99.90
22781;DHT22;11557;50.884;4.322;2023-04-24T04:31:39;9.60;99.90
22781;DHT22;11557;50.884;4.322;2023-04-24T04:34:04;9.80;99.90
22781;DHT22;11557;50.884;4.322;2023-04-24T04:36:31;9.70;99.90
22781;DHT22;11557;50.884;4.322;2023-04-24T04:38:56;9.70;99.90
22781;DHT22;11557;50.884;4.322;2023-04-24T04:41:24;9.60;99.90
22781;DHT22;11557;50.884;4.322;2023-04-24T04:43:50;9.70;99.90
22781;DHT22;11557;50.884;4.322;2023-04-24T04:46:16;9.60;99.90
22781;DHT22;11557;50.884;4.322;2023-04-24T04:48:42;9.50;99.90
22781;DHT22;11557;50.884;4.322;2023-04-24T04:51:08;9.50;99.90
22781;DHT22;11557;50.884;4.322;2023-04-24T04:53:34;9.60;99.90
22781;DHT22;11557;50.884;4.322;2023-04-24T04:56:01;9.50;99.90
22781;DHT22;11557;50.884;4.322;2023-04-24T04:58:27;9.60;99.90
22781;DHT22;11557;50.884;4.322;2023-04-24T05:00:52;9.60;99.90
22781;DHT22;11557;50.884;4.322;2023-04-24T05:03:18;9.70;99.90
22781;DHT22;11557;50.884;4.322;2023-04-24T05:05:44;9.80;99.90
22781;DHT22;11557;50.884;4.322;2023-04-24T05:08:10;9.70;99.90
22781;DHT22;11557;50.884;4.322;2023-04-24T05:10:35;9.60;99.90
22781;DHT22;11557;50.884;4.322;2023-04-24T05:13:03;9.50;99.90
22781;DHT22;11557;50.884;4.322;2023-04-24T05:15:29;9.40;99.90
22781;DHT22;11557;50.884;4.322;2023-04-24T05:17:55;9.40;99.90
22781;DHT22;11557;50.884;4.322;2023-04-24T05:20:21;9.50;99.90
22781;DHT22;11557;50.884;4.322;2023-04-24T05:22:47;9.40;99.90
22781;DHT22;11557;50.884;4.322;2023-04-24T05:25:12;9.40;99.90
22781;DHT22;11557;50.884;4.322;2023-04-24T05:27:38;9.40;99.90
22781;DHT22;11557;50.884;4.322;2023-04-24T05:30:05;9.60;99.90
22781;DHT22;11557;50.884;4.322;2023-04-24T05:32:31;9.50;99.90
22781;DHT22;11557;50.884;4.322;2023-04-24T05:34:56;9.40;99.90
22781;DHT22;11557;50.884;4.322;2023-04-24T05:37:22;9.50;99.90
22781;DHT22;11557;50.884;4.322;2023-04-24T05:39:47;9.40;99.90
22781;DHT22;11557;50.884;4.322;2023-04-24T05:42:13;9.10;99.90
22781;DHT22;11557;50.884;4.322;2023-04-24T05:44:39;9.20;99.90
22781;DHT22;11557;50.884;4.322;2023-04-24T05:47:04;9.10;99.90
22781;DHT22;11557;50.884;4.322;2023-04-24T05:49:30;9.20;99.90
22781;DHT22;11557;50.884;4.322;2023-04-24T05:51:56;9.20;99.90
22781;DHT22;11557;50.884;4.322;2023-04-24T05:54:22;9.20;99.90
22781;DHT22;11557;50.884;4.322;2023-04-24T05:56:49;9.20;99.90
22781;DHT22;11557;50.884;4.322;2023-04-24T05:59:15;9.20;99.90
22781;DHT22;11557;50.884;4.322;2023-04-24T06:01:41;9.20;99.90
22781;DHT22;11557;50.884;4.322;2023-04-24T06:04:07;9.20;99.90
22781;DHT22;11557;50.884;4.322;2023-04-24T06:06:32;9.20;99.90
22781;DHT22;11557;50.884;4.322;2023-04-24T06:08:58;9.20;99.90
22781;DHT22;11557;50.884;4.322;2023-04-24T06:11:24;9.00;99.90
22781;DHT22;11557;50.884;4.322;2023-04-24T06:13:50;9.00;99.90
22781;DHT22;11557;50.884;4.322;2023-04-24T06:16:15;9.00;99.90
22781;DHT22;11557;50.884;4.322;2023-04-24T06:18:41;9.10;99.90
22781;DHT22;11557;50.884;4.322;2023-04-24T06:21:07;9.20;99.90
22781;DHT22;11557;50.884;4.322;2023-04-24T06:23:32;9.30;99.90
22781;DHT22;11557;50.884;4.322;2023-04-24T06:25:59;9.20;99.90
22781;DHT22;11557;50.884;4.322;2023-04-24T06:28:25;9.00;99.90
22781;DHT22;11557;50.884;4.322;2023-04-24T06:30:50;9.00;99.90
22781;DHT22;11557;50.884;4.322;2023-04-24T06:33:16;9.10;99.90
22781;DHT22;11557;50.884;4.322;2023-04-24T06:35:42;9.10;99.90
22781;DHT22;11557;50.884;4.322;2023-04-24T06:38:08;9.30;99.90
22781;DHT22;11557;50.884;4.322;2023-04-24T06:40:33;9.30;99.90
22781;DHT22;11557;50.884;4.322;2023-04-24T06:42:59;9.20;99.90
22781;DHT22;11557;50.884;4.322;2023-04-24T06:45:25;9.20;99.90
22781;DHT22;11557;50.884;4.322;2023-04-24T06:47:51;9.30;99.90
22781;DHT22;11557;50.884;4.322;2023-04-24T06:50:17;9.20;99.90
22781;DHT22;11557;50.884;4.322;2023-04-24T06:52:43;9.30;99.90
22781;DHT22;11557;50.884;4.322;2023-04-24T06:55:09;9.50;99.90
22781;DHT22;11557;50.884;4.322;2023-04-24T06:57:36;9.40;99.90
22781;DHT22;11557;50.884;4.322;2023-04-24T07:00:03;9.50;99.90
22781;DHT22;11557;50.884;4.322;2023-04-24T07:02:30;9.70;99.90
22781;DHT22;11557;50.884;4.322;2023-04-24T07:04:56;9.60;99.90
22781;DHT22;11557;50.884;4.322;2023-04-24T07:07:22;9.70;99.90
22781;DHT22;11557;50.884;4.322;2023-04-24T07:09:49;9.70;99.90
22781;DHT22;11557;50.884;4.322;2023-04-24T07:12:16;9.80;99.90
22781;DHT22;11557;50.884;4.322;2023-04-24T07:14:42;9.60;99.90
22781;DHT22;11557;50.884;4.322;2023-04-24T07:17:08;9.70;99.90
22781;DHT22;11557;50.884;4.322;2023-04-24T07:19:34;9.70;99.90
22781;DHT22;11557;50.884;4.322;2023-04-24T07:22:03;9.80;99.90
22781;DHT22;11557;50.884;4.322;2023-04-24T07:24:29;9.90;99.90
22781;DHT22;11557;50.884;4.322;2023-04-24T07:26:55;10.00;99.90
22781;DHT22;11557;50.884;4.322;2023-04-24T07:29:20;9.90;99.90
22781;DHT22;11557;50.884;4.322;2023-04-24T07:31:46;10.00;99.90
22781;DHT22;11557;50.884;4.322;2023-04-24T07:34:12;10.40;99.90
22781;DHT22;11557;50.884;4.322;2023-04-24T07:36:38;9.90;99.90
22781;DHT22;11557;50.884;4.322;2023-04-24T07:39:04;10.10;99.90
22781;DHT22;11557;50.884;4.322;2023-04-24T07:41:30;10.40;99.90
22781;DHT22;11557;50.884;4.322;2023-04-24T07:43:56;10.20;99.90
22781;DHT22;11557;50.884;4.322;2023-04-24T07:46:21;10.30;99.90
22781;DHT22;11557;50.884;4.322;2023-04-24T07:48:48;10.20;99.90
22781;DHT22;11557;50.884;4.322;2023-04-24T07:51:15;10.00;99.90
22781;DHT22;11557;50.884;4.322;2023-04-24T07:53:41;10.10;99.90
22781;DHT22;11557;50.884;4.322;2023-04-24T07:56:07;10.10;99.90
22781;DHT22;11557;50.884;4.322;2023-04-24T07:58:33;10.40;99.90
22781;DHT22;11557;50.884;4.322;2023-04-24T08:00:58;10.50;99.90
22781;DHT22;11557;50.884;4.322;2023-04-24T08:03:24;10.60;99.90
22781;DHT22;11557;50.884;4.322;2023-04-24T08:05:50;10.50;99.90
22781;DHT22;11557;50.884;4.322;2023-04-24T08:08:16;10.50;99.90
22781;DHT22;11557;50.884;4.322;2023-04-24T08:10:42;10.30;99.90
22781;DHT22;11557;50.884;4.322;2023-04-24T08:13:08;10.10;99.90
22781;DHT22;11557;50.884;4.322;2023-04-24T08:15:34;10.10;99.90
22781;DHT22;11557;50.884;4.322;2023-04-24T08:18:00;10.20;99.90
22781;DHT22;11557;50.884;4.322;2023-04-24T08:20:26;10.30;99.90
22781;DHT22;11557;50.884;4.322;2023-04-24T08:22:51;10.40;99.90
22781;DHT22;11557;50.884;4.322;2023-04-24T08:25:17;10.60;99.90
22781;DHT22;11557;50.884;4.322;2023-04-24T08:27:44;10.80;99.90
22781;DHT22;11557;50.884;4.322;2023-04-24T08:30:10;10.80;99.90
22781;DHT22;11557;50.884;4.322;2023-04-24T08:32:36;10.70;99.90
22781;DHT22;11557;50.884;4.322;2023-04-24T08:35:03;10.60;99.90
22781;DHT22;11557;50.884;4.322;2023-04-24T08:37:29;10.50;99.90
22781;DHT22;11557;50.884;4.322;2023-04-24T08:39:54;10.50;99.90
22781;DHT22;11557;50.884;4.322;2023-04-24T08:42:21;10.50;99.90
22781;DHT22;11557;50.884;4.322;2023-04-24T08:44:48;10.70;99.90
22781;DHT22;11557;50.884;4.322;2023-04-24T08:47:15;11.10;99.90
22781;DHT22;11557;50.884;4.322;2023-04-24T08:49:41;11.30;99.90
22781;DHT22;11557;50.884;4.322;2023-04-24T08:52:07;11.80;99.90
22781;DHT22;11557;50.884;4.322;2023-04-24T08:54:36;12.10;99.90
22781;DHT22;11557;50.884;4.322;2023-04-24T08:57:02;12.40;99.90
22781;DHT22;11557;50.884;4.322;2023-04-24T08:59:30;12.60;99.90
22781;DHT22;11557;50.884;4.322;2023-04-24T09:01:56;13.40;99.90
22781;DHT22;11557;50.884;4.322;2023-04-24T09:04:24;13.80;99.90
22781;DHT22;11557;50.884;4.322;2023-04-24T09:06:51;14.00;99.90
22781;DHT22;11557;50.884;4.322;2023-04-24T09:09:17;14.00;99.90
22781;DHT22;11557;50.884;4.322;2023-04-24T09:11:44;13.70;99.90
22781;DHT22;11557;50.884;4.322;2023-04-24T09:14:10;13.10;99.90
22781;DHT22;11557;50.884;4.322;2023-04-24T09:16:37;12.60;99.90
22781;DHT22;11557;50.884;4.322;2023-04-24T09:19:02;12.70;99.90
22781;DHT22;11557;50.884;4.322;2023-04-24T09:21:32;13.60;99.90
22781;DHT22;11557;50.884;4.322;2023-04-24T09:24:07;13.50;99.90
22781;DHT22;11557;50.884;4.322;2023-04-24T09:26:35;13.50;99.90
22781;DHT22;11557;50.884;4.322;2023-04-24T09:29:02;12.90;99.90
22781;DHT22;11557;50.884;4.322;2023-04-24T09:31:29;12.60;99.90
22781;DHT22;11557;50.884;4.322;2023-04-24T09:34:00;12.00;99.90
22781;DHT22;11557;50.884;4.322;2023-04-24T09:36:30;11.80;99.90
22781;DHT22;11557;50.884;4.322;2023-04-24T09:39:00;11.80;99.90
22781;DHT22;11557;50.884;4.322;2023-04-24T09:41:27;12.00;99.90
22781;DHT22;11557;50.884;4.322;2023-04-24T09:43:57;12.50;99.90
22781;DHT22;11557;50.884;4.322;2023-04-24T09:46:33;12.80;99.90
22781;DHT22;11557;50.884;4.322;2023-04-24T09:49:08;12.90;99.90
22781;DHT22;11557;50.884;4.322;2023-04-24T09:51:37;12.80;99.90
22781;DHT22;11557;50.884;4.322;2023-04-24T09:54:04;12.90;99.90
22781;DHT22;11557;50.884;4.322;2023-04-24T09:56:33;12.80;99.90
22781;DHT22;11557;50.884;4.322;2023-04-24T09:59:06;12.70;99.90
22781;DHT22;11557;50.884;4.322;2023-04-24T10:01:33;12.40;99.90
22781;DHT22;11557;50.884;4.322;2023-04-24T10:03:59;12.10;99.90
22781;DHT22;11557;50.884;4.322;2023-04-24T10:06:34;12.00;99.90
22781;DHT22;11557;50.884;4.322;2023-04-24T10:09:00;12.20;99.90
22781;DHT22;11557;50.884;4.322;2023-04-24T10:11:27;12.40;99.90
22781;DHT22;11557;50.884;4.322;2023-04-24T10:13:53;13.00;99.90
22781;DHT22;11557;50.884;4.322;2023-04-24T10:16:20;13.40;99.90
22781;DHT22;11557;50.884;4.322;2023-04-24T10:18:48;13.00;99.90
22781;DHT22;11557;50.884;4.322;2023-04-24T10:21:15;12.80;99.90
22781;DHT22;11557;50.884;4.322;2023-04-24T10:23:42;12.70;99.90
22781;DHT22;11557;50.884;4.322;2023-04-24T10:26:12;12.50;99.90
22781;DHT22;11557;50.884;4.322;2023-04-24T10:28:45;12.30;99.90
22781;DHT22;11557;50.884;4.322;2023-04-24T10:31:12;12.70;99.90
22781;DHT22;11557;50.884;4.322;2023-04-24T10:33:40;12.80;99.90
22781;DHT22;11557;50.884;4.322;2023-04-24T10:36:08;13.20;99.90
22781;DHT22;11557;50.884;4.322;2023-04-24T10:38:35;13.10;99.90
22781;DHT22;11557;50.884;4.322;2023-04-24T10:41:09;13.20;99.90
22781;DHT22;11557;50.884;4.322;2023-04-24T10:43:36;12.70;99.90
22781;DHT22;11557;50.884;4.322;2023-04-24T10:46:05;12.40;99.90
22781;DHT22;11557;50.884;4.322;2023-04-24T10:48:32;12.40;99.90
22781;DHT22;11557;50.884;4.322;2023-04-24T10:50:57;12.50;99.90
22781;DHT22;11557;50.884;4.322;2023-04-24T10:53:27;12.70;99.90
22781;DHT22;11557;50.884;4.322;2023-04-24T10:56:02;12.70;99.90
22781;DHT22;11557;50.884;4.322;2023-04-24T10:58:49;12.80;99.90
22781;DHT22;11557;50.884;4.322;2023-04-24T11:01:25;13.00;99.90
22781;DHT22;11557;50.884;4.322;2023-04-24T11:03:55;13.20;99.90
22781;DHT22;11557;50.884;4.322;2023-04-24T11:06:32;13.40;99.90
22781;DHT22;11557;50.884;4.322;2023-04-24T11:11:29;13.30;99.90
22781;DHT22;11557;50.884;4.322;2023-04-24T11:16:42;13.50;99.90
22781;DHT22;11557;50.884;4.322;2023-04-24T11:21:48;13.60;99.90
22781;DHT22;11557;50.884;4.322;2023-04-24T11:27:11;13.20;99.90
22781;DHT22;11557;50.884;4.322;2023-04-24T11:32:40;13.20;99.90
22781;DHT22;11557;50.884;4.322;2023-04-24T11:35:18;13.00;99.90
22781;DHT22;11557;50.884;4.322;2023-04-24T11:37:46;13.10;99.90
22781;DHT22;11557;50.884;4.322;2023-04-24T11:40:14;13.50;99.90
22781;DHT22;11557;50.884;4.322;2023-04-24T11:42:48;13.40;99.90
22781;DHT22;11557;50.884;4.322;2023-04-24T11:45:21;13.60;99.90
22781;DHT22;11557;50.884;4.322;2023-04-24T11:47:47;13.30;99.90
22781;DHT22;11557;50.884;4.322;2023-04-24T11:50:17;12.90;99.90
22781;DHT22;11557;50.884;4.322;2023-04-24T11:52:45;12.80;99.90
22781;DHT22;11557;50.884;4.322;2023-04-24T11:57:43;13.20;99.90
22781;DHT22;11557;50.884;4.322;2023-04-24T12:00:19;13.40;99.90
22781;DHT22;11557;50.884;4.322;2023-04-24T12:02:46;13.60;99.90
22781;DHT22;11557;50.884;4.322;2023-04-24T12:05:32;13.60;99.90
22781;DHT22;11557;50.884;4.322;2023-04-24T12:07:58;13.60;99.90
22781;DHT22;11557;50.884;4.322;2023-04-24T12:10:25;13.90;99.90
22781;DHT22;11557;50.884;4.322;2023-04-24T12:12:51;13.90;99.90
22781;DHT22;11557;50.884;4.322;2023-04-24T12:15:18;13.80;99.90
22781;DHT22;11557;50.884;4.322;2023-04-24T12:17:45;14.00;99.90
22781;DHT22;11557;50.884;4.322;2023-04-24T12:20:11;14.40;99.90
22781;DHT22;11557;50.884;4.322;2023-04-24T12:22:55;14.80;99.90
22781;DHT22;11557;50.884;4.322;2023-04-24T12:25:23;14.90;99.90
22781;DHT22;11557;50.884;4.322;2023-04-24T12:28:10;15.10;99.90
22781;DHT22;11557;50.884;4.322;2023-04-24T12:30:42;14.90;99.90
22781;DHT22;11557;50.884;4.322;2023-04-24T12:33:11;14.90;99.90
22781;DHT22;11557;50.884;4.322;2023-04-24T12:35:36;15.10;99.90
22781;DHT22;11557;50.884;4.322;2023-04-24T12:38:06;15.00;99.90
22781;DHT22;11557;50.884;4.322;2023-04-24T12:40:33;15.00;99.90
22781;DHT22;11557;50.884;4.322;2023-04-24T12:42:59;15.10;99.90
22781;DHT22;11557;50.884;4.322;2023-04-24T12:45:24;15.10;99.90
22781;DHT22;11557;50.884;4.322;2023-04-24T12:47:50;15.20;99.90
22781;DHT22;11557;50.884;4.322;2023-04-24T12:50:16;15.40;99.90
22781;DHT22;11557;50.884;4.322;2023-04-24T12:52:43;15.20;99.90
22781;DHT22;11557;50.884;4.322;2023-04-24T12:55:09;14.90;99.90
22781;DHT22;11557;50.884;4.322;2023-04-24T12:57:37;14.70;99.90
22781;DHT22;11557;50.884;4.322;2023-04-24T13:00:04;14.40;99.90
22781;DHT22;11557;50.884;4.322;2023-04-24T13:02:30;14.20;99.90
22781;DHT22;11557;50.884;4.322;2023-04-24T13:04:59;14.20;99.90
22781;DHT22;11557;50.884;4.322;2023-04-24T13:07:26;14.30;99.90
22781;DHT22;11557;50.884;4.322;2023-04-24T13:09:53;14.10;99.90
22781;DHT22;11557;50.884;4.322;2023-04-24T13:12:19;14.20;99.90
22781;DHT22;11557;50.884;4.322;2023-04-24T13:14:45;14.10;99.90
22781;DHT22;11557;50.884;4.322;2023-04-24T13:17:11;14.30;99.90
22781;DHT22;11557;50.884;4.322;2023-04-24T13:19:40;14.50;99.90
22781;DHT22;11557;50.884;4.322;2023-04-24T13:22:06;14.40;99.90
22781;DHT22;11557;50.884;4.322;2023-04-24T13:24:33;14.40;99.90
22781;DHT22;11557;50.884;4.322;2023-04-24T13:26:59;14.40;99.90
22781;DHT22;11557;50.884;4.322;2023-04-24T13:29:25;14.20;99.90
22781;DHT22;11557;50.884;4.322;2023-04-24T13:31:51;14.00;99.90
22781;DHT22;11557;50.884;4.322;2023-04-24T13:34:19;13.80;99.90
22781;DHT22;11557;50.884;4.322;2023-04-24T13:36:45;13.80;99.90
22781;DHT22;11557;50.884;4.322;2023-04-24T13:39:11;13.90;99.90
22781;DHT22;11557;50.884;4.322;2023-04-24T13:41:37;14.10;99.90
22781;DHT22;11557;50.884;4.322;2023-04-24T13:44:04;14.40;99.90
22781;DHT22;11557;50.884;4.322;2023-04-24T13:46:30;14.50;99.90
22781;DHT22;11557;50.884;4.322;2023-04-24T13:48:57;14.50;99.90
22781;DHT22;11557;50.884;4.322;2023-04-24T13:51:24;14.70;99.90
22781;DHT22;11557;50.884;4.322;2023-04-24T13:53:52;15.00;99.90
22781;DHT22;11557;50.884;4.322;2023-04-24T13:56:18;15.00;99.90
22781;DHT22;11557;50.884;4.322;2023-04-24T13:58:44;14.50;99.90
22781;DHT22;11557;50.884;4.322;2023-04-24T14:01:10;14.40;99.90
22781;DHT22;11557;50.884;4.322;2023-04-24T14:03:37;14.30;99.90
22781;DHT22;11557;50.884;4.322;2023-04-24T14:06:03;14.10;99.90
22781;DHT22;11557;50.884;4.322;2023-04-24T14:08:29;14.30;99.90
22781;DHT22;11557;50.884;4.322;2023-04-24T14:10:54;14.50;99.90
22781;DHT22;11557;50.884;4.322;2023-04-24T14:13:20;14.40;99.90
22781;DHT22;11557;50.884;4.322;2023-04-24T14:15:46;14.40;99.90
22781;DHT22;11557;50.884;4.322;2023-04-24T14:18:12;14.40;99.90
22781;DHT22;11557;50.884;4.322;2023-04-24T14:20:38;14.30;99.90
22781;DHT22;11557;50.884;4.322;2023-04-24T14:23:03;14.10;99.90
22781;DHT22;11557;50.884;4.322;2023-04-24T14:25:30;13.90;99.90
22781;DHT22;11557;50.884;4.322;2023-04-24T14:27:56;13.90;99.90
22781;DHT22;11557;50.884;4.322;2023-04-24T14:30:21;14.00;99.90
22781;DHT22;11557;50.884;4.322;2023-04-24T14:32:48;13.80;99.90
22781;DHT22;11557;50.884;4.322;2023-04-24T14:35:14;13.80;99.90
22781;DHT22;11557;50.884;4.322;2023-04-24T14:37:40;13.80;99.90
22781;DHT22;11557;50.884;4.322;2023-04-24T14:40:07;13.80;99.90
22781;DHT22;11557;50.884;4.322;2023-04-24T14:42:34;13.80;99.90
22781;DHT22;11557;50.884;4.322;2023-04-24T14:44:59;13.70;99.90
22781;DHT22;11557;50.884;4.322;2023-04-24T14:47:25;13.80;99.90
22781;DHT22;11557;50.884;4.322;2023-04-24T14:49:51;14.00;99.90
22781;DHT22;11557;50.884;4.322;2023-04-24T14:52:17;14.00;99.90
22781;DHT22;11557;50.884;4.322;2023-04-24T14:54:43;14.10;99.90
22781;DHT22;11557;50.884;4.322;2023-04-24T14:57:09;14.00;99.90
22781;DHT22;11557;50.884;4.322;2023-04-24T14:59:35;13.90;99.90
22781;DHT22;11557;50.884;4.322;2023-04-24T15:02:01;13.90;99.90
22781;DHT22;11557;50.884;4.322;2023-04-24T15:04:27;14.00;99.90
22781;DHT22;11557;50.884;4.322;2023-04-24T15:06:54;14.00;99.90
22781;DHT22;11557;50.884;4.322;2023-04-24T15:09:23;13.80;99.90
22781;DHT22;11557;50.884;4.322;2023-04-24T15:11:49;13.70;99.90
22781;DHT22;11557;50.884;4.322;2023-04-24T15:14:16;13.50;99.90
22781;DHT22;11557;50.884;4.322;2023-04-24T15:16:42;13.50;99.90
22781;DHT22;11557;50.884;4.322;2023-04-24T15:19:08;13.30;99.90
22781;DHT22;11557;50.884;4.322;2023-04-24T15:21:36;13.00;99.90
22781;DHT22;11557;50.884;4.322;2023-04-24T15:24:01;13.20;99.90
22781;DHT22;11557;50.884;4.322;2023-04-24T15:26:27;13.20;99.90
22781;DHT22;11557;50.884;4.322;2023-04-24T15:28:53;13.50;99.90
22781;DHT22;11557;50.884;4.322;2023-04-24T15:31:18;13.60;99.90
22781;DHT22;11557;50.884;4.322;2023-04-24T15:33:44;13.70;99.90
22781;DHT22;11557;50.884;4.322;2023-04-24T15:36:10;13.70;99.90
22781;DHT22;11557;50.884;4.322;2023-04-24T15:38:37;13.70;99.90
22781;DHT22;11557;50.884;4.322;2023-04-24T15:41:02;13.60;99.90
22781;DHT22;11557;50.884;4.322;2023-04-24T15:43:28;13.80;99.90
22781;DHT22;11557;50.884;4.322;2023-04-24T15:46:00;13.90;99.90
22781;DHT22;11557;50.884;4.322;2023-04-24T15:48:26;14.00;99.90